Argent Gerbera — V7UC4 — position and weather

sailwx.info

Track history (hours):
 
Tides and Currents Weather Stations Pressure Air Temp Water Temp Dewpoint Dewpoint Depression Visibility Wind Speed Wind Dir Waves Ship Positions

Argent Gerbera

Last reported at 2014-Aug-29 15:33 UTC. Time now 2014-Aug-29 16:23 UTC.
Position N 37°26' E 002°40'.

Length 175 m; draft 10.6 m.

Type: Ship (hazmat cat A). MMSI: 538003929.

Date/timePositionNaut miles runAvg speedWind from/ knotsBaromVisibWave heightAir tempDewpointWater temp
2014-Aug-29 15:33N 37°26' E 002°40'1514.5
2014-Aug-29 14:33N 37°29' E 002°58'1312.6
2014-Aug-29 13:33N 37°31' E 003°13'1212.4
2014-Aug-29 12:33N 37°34' E 003°29'1312.7
2014-Aug-29 11:33N 37°36' E 003°45'1313.1
2014-Aug-29 10:33N 37°38' E 004°01'1312.7
2014-Aug-29 09:33N 37°41' E 004°17'1312.9
2014-Aug-29 08:33N 37°43' E 004°33'1412.9
2014-Aug-29 07:30N 37°46' E 004°49'1212.8
2014-Aug-29 06:32N 37°49' E 005°05'1513.2
2014-Aug-29 05:24N 37°49' E 005°24'1113.4
2014-Aug-29 04:33N 37°49' E 005°38'1313.5
2014-Aug-29 03:33N 37°49' E 005°55'1313.3
2014-Aug-29 02:33N 37°49' E 006°12'1313.0
2014-Aug-29 01:32N 37°49' E 006°29'1212.7
2014-Aug-29 00:33N 37°49' E 006°45'1312.8
2014-Aug-28 23:32N 37°49' E 007°01'1412.8
2014-Aug-28 22:28N 37°49' E 007°18'1212.7
2014-Aug-28 21:30N 37°49' E 007°34'2612.5
2014-Aug-28 19:26N 37°49' E 008°06'1112.3
2014-Aug-28 18:33N 37°49' E 008°20'1212.0
2014-Aug-28 17:33N 37°49' E 008°35'1212.0
2014-Aug-28 16:33N 37°49' E 008°51'1313.3
2014-Aug-28 15:33N 37°48' E 009°07'1312.7
2014-Aug-28 14:33N 37°48' E 009°23'1212.1
2014-Aug-28 13:32N 37°47' E 009°39'1611.8
2014-Aug-28 12:10N 37°47' E 009°60'711.5
2014-Aug-28 11:33N 37°47' E 010°08'3511.8
2014-Aug-28 08:33N 37°37' E 010°51'8812.6
2014-Aug-28 01:33N 37°06' E 012°35'1212.1
2014-Aug-28 00:33N 37°01' E 012°49'1212.3
2014-Aug-27 23:33N 36°56' E 013°03'1212.3
2014-Aug-27 22:33N 36°52' E 013°17'1312.6
2014-Aug-27 21:33N 36°47' E 013°31'1312.8
2014-Aug-27 20:33N 36°42' E 013°46'1312.7
2014-Aug-27 19:33N 36°36' E 014°00'1312.8
2014-Aug-27 18:33N 36°29' E 014°14'1312.6
2014-Aug-27 17:33N 36°24' E 014°28'1312.7
2014-Aug-27 16:33N 36°21' E 014°43'1413.8
2014-Aug-27 15:33N 36°18' E 015°00'1313.0
2014-Aug-27 14:33N 36°16' E 015°16'  
2014-Aug-22 14:18N 33°23' E 027°20'1213.9
2014-Aug-22 13:27N 33°19' E 027°34'1112.6
2014-Aug-22 12:33N 33°14' E 027°46'1312.5
2014-Aug-22 11:33N 33°09' E 027°60'4412.8
2014-Aug-22 08:08N 32°53' E 028°48'813.0
2014-Aug-22 07:32N 32°50' E 028°57'7912.9
2014-Aug-22 01:26N 32°21' E 030°24'1112.5
2014-Aug-22 00:33N 32°17' E 030°36'1412.9
2014-Aug-21 23:28N 32°11' E 030°51'1212.8
2014-Aug-21 22:31N 32°07' E 031°04'1312.0
2014-Aug-21 21:26N 32°02' E 031°18'1011.9
2014-Aug-21 20:33N 31°58' E 031°30'1211.9
2014-Aug-21 19:33N 31°54' E 031°43'  
Track history (hours):
 
Tides and Currents Weather Stations Pressure Air Temp Water Temp Dewpoint Dewpoint Depression Visibility Wind Speed Wind Dir Waves Ship Positions

Argent Gerbera

Last reported at 2014-Aug-29 15:33 UTC. Time now 2014-Aug-29 16:23 UTC.
Position N 37°26' E 002°40'.

Length 175 m; draft 10.6 m.

Type: Ship (hazmat cat A). MMSI: 538003929.

Date/timePositionNaut miles runAvg speedWind from/ knotsBaromVisibWave heightAir tempDewpointWater temp
2014-Aug-29 15:33N 37°26' E 002°40'1514.5
2014-Aug-29 14:33N 37°29' E 002°58'1312.6
2014-Aug-29 13:33N 37°31' E 003°13'1212.4
2014-Aug-29 12:33N 37°34' E 003°29'1312.7
2014-Aug-29 11:33N 37°36' E 003°45'1313.1
2014-Aug-29 10:33N 37°38' E 004°01'1312.7
2014-Aug-29 09:33N 37°41' E 004°17'1312.9
2014-Aug-29 08:33N 37°43' E 004°33'1412.9
2014-Aug-29 07:30N 37°46' E 004°49'1212.8
2014-Aug-29 06:32N 37°49' E 005°05'1513.2
2014-Aug-29 05:24N 37°49' E 005°24'1113.4
2014-Aug-29 04:33N 37°49' E 005°38'1313.5
2014-Aug-29 03:33N 37°49' E 005°55'1313.3
2014-Aug-29 02:33N 37°49' E 006°12'1313.0
2014-Aug-29 01:32N 37°49' E 006°29'1212.7
2014-Aug-29 00:33N 37°49' E 006°45'1312.8
2014-Aug-28 23:32N 37°49' E 007°01'1412.8
2014-Aug-28 22:28N 37°49' E 007°18'1212.7
2014-Aug-28 21:30N 37°49' E 007°34'2612.5
2014-Aug-28 19:26N 37°49' E 008°06'1112.3
2014-Aug-28 18:33N 37°49' E 008°20'1212.0
2014-Aug-28 17:33N 37°49' E 008°35'1212.0
2014-Aug-28 16:33N 37°49' E 008°51'1313.3
2014-Aug-28 15:33N 37°48' E 009°07'1312.7
2014-Aug-28 14:33N 37°48' E 009°23'1212.1
2014-Aug-28 13:32N 37°47' E 009°39'1611.8
2014-Aug-28 12:10N 37°47' E 009°60'711.5
2014-Aug-28 11:33N 37°47' E 010°08'3511.8
2014-Aug-28 08:33N 37°37' E 010°51'8812.6
2014-Aug-28 01:33N 37°06' E 012°35'1212.1
2014-Aug-28 00:33N 37°01' E 012°49'1212.3
2014-Aug-27 23:33N 36°56' E 013°03'1212.3
2014-Aug-27 22:33N 36°52' E 013°17'1312.6
2014-Aug-27 21:33N 36°47' E 013°31'1312.8
2014-Aug-27 20:33N 36°42' E 013°46'1312.7
2014-Aug-27 19:33N 36°36' E 014°00'1312.8
2014-Aug-27 18:33N 36°29' E 014°14'1312.6
2014-Aug-27 17:33N 36°24' E 014°28'1312.7
2014-Aug-27 16:33N 36°21' E 014°43'1413.8
2014-Aug-27 15:33N 36°18' E 015°00'1313.0
2014-Aug-27 14:33N 36°16' E 015°16'  
2014-Aug-22 14:18N 33°23' E 027°20'1213.9
2014-Aug-22 13:27N 33°19' E 027°34'1112.6
2014-Aug-22 12:33N 33°14' E 027°46'1312.5
2014-Aug-22 11:33N 33°09' E 027°60'4412.8
2014-Aug-22 08:08N 32°53' E 028°48'813.0
2014-Aug-22 07:32N 32°50' E 028°57'7912.9
2014-Aug-22 01:26N 32°21' E 030°24'1112.5
2014-Aug-22 00:33N 32°17' E 030°36'1412.9
2014-Aug-21 23:28N 32°11' E 030°51'1212.8
2014-Aug-21 22:31N 32°07' E 031°04'1312.0
2014-Aug-21 21:26N 32°02' E 031°18'1011.9
2014-Aug-21 20:33N 31°58' E 031°30'1211.9
2014-Aug-21 19:33N 31°54' E 031°43'  

Dump ship's entire track history